createdAt,value
2022-12-19T00:00:58.161Z,3.6
2022-12-19T00:02:05.401Z,3.6
2022-12-19T00:04:19.012Z,3.7
2022-12-19T00:05:26.092Z,3.7
2022-12-19T00:06:33.217Z,3.7
2022-12-19T00:07:40.302Z,3.7
2022-12-19T00:08:46.892Z,3.7
2022-12-19T00:09:53.992Z,3.8
2022-12-19T00:11:01.066Z,3.8
2022-12-19T00:12:08.153Z,3.8
2022-12-19T00:13:15.354Z,3.8
2022-12-19T00:14:21.994Z,3.9
2022-12-19T00:15:28.954Z,3.9
2022-12-19T00:16:36.148Z,3.9
2022-12-19T00:17:43.178Z,3.8
2022-12-19T00:18:49.758Z,3.8
2022-12-19T00:19:56.914Z,3.8
2022-12-19T00:21:03.977Z,3.8
2022-12-19T00:22:11.457Z,3.8
2022-12-19T00:23:18.157Z,3.8
2022-12-19T00:24:24.808Z,3.8
2022-12-19T00:25:32.101Z,3.8
2022-12-19T00:26:38.992Z,3.8
2022-12-19T00:27:46.128Z,3.8
2022-12-19T00:28:53.294Z,3.8
2022-12-19T00:30:00.303Z,3.8
2022-12-19T00:31:07.073Z,3.8
2022-12-19T00:32:14.010Z,3.8
2022-12-19T00:33:21.131Z,3.8
2022-12-19T00:35:35.350Z,3.8
2022-12-19T00:36:42.076Z,3.8
2022-12-19T00:37:49.541Z,3.8
2022-12-19T00:38:56.150Z,3.8
2022-12-19T00:40:03.244Z,3.8
2022-12-19T00:41:09.788Z,3.8
2022-12-19T00:42:16.949Z,3.8
2022-12-19T00:43:24.030Z,3.9
2022-12-19T00:44:31.451Z,3.9
2022-12-19T00:45:38.354Z,3.8
2022-12-19T00:46:53.017Z,3.8
2022-12-19T00:47:51.902Z,3.8
2022-12-19T00:48:58.978Z,3.8
2022-12-19T00:50:06.112Z,3.8
2022-12-19T00:51:13.219Z,3.8
2022-12-19T00:52:19.889Z,3.8
2022-12-19T00:53:27.405Z,3.8
2022-12-19T00:54:34.118Z,3.9
2022-12-19T00:55:41.179Z,3.8
2022-12-19T00:56:48.311Z,3.8
2022-12-19T00:57:55.370Z,3.8
2022-12-19T00:59:01.960Z,3.8
2022-12-19T01:00:09.246Z,3.8
2022-12-19T01:01:16.394Z,3.8
2022-12-19T01:02:23.329Z,3.8
2022-12-19T01:03:29.820Z,3.8
2022-12-19T01:04:41.320Z,3.8
2022-12-19T01:05:44.034Z,3.8
2022-12-19T01:06:51.253Z,3.8
2022-12-19T01:07:58.232Z,3.8
2022-12-19T01:09:04.889Z,3.9
2022-12-19T01:10:11.936Z,3.9
2022-12-19T01:11:19.015Z,3.9
2022-12-19T01:12:26.197Z,3.9
2022-12-19T01:13:33.224Z,3.9
2022-12-19T01:14:39.828Z,3.9
2022-12-19T01:15:47.039Z,3.9
2022-12-19T01:16:54.143Z,3.9
2022-12-19T01:18:01.187Z,3.9
2022-12-19T01:19:08.261Z,3.9
2022-12-19T01:20:14.907Z,3.9
2022-12-19T01:21:21.951Z,3.9
2022-12-19T01:22:28.580Z,3.9
2022-12-19T01:23:36.197Z,3.9
2022-12-19T01:24:43.413Z,3.9
2022-12-19T01:25:50.865Z,3.9
2022-12-19T01:26:56.927Z,3.9
2022-12-19T01:28:04.080Z,3.9
2022-12-19T01:29:11.171Z,3.9
2022-12-19T01:30:18.239Z,3.9
2022-12-19T01:32:32.035Z,3.9
2022-12-19T01:33:39.090Z,3.9
2022-12-19T01:34:46.220Z,3.9
2022-12-19T01:35:53.330Z,3.9
2022-12-19T01:36:59.952Z,3.9
2022-12-19T01:39:14.090Z,3.9
2022-12-19T01:40:21.232Z,3.9
2022-12-19T01:41:28.294Z,3.9
2022-12-19T01:42:34.891Z,3.9
2022-12-19T01:43:42.049Z,3.9
2022-12-19T01:44:49.106Z,3.9
2022-12-19T01:45:56.244Z,3.9
2022-12-19T01:47:03.376Z,3.9
2022-12-19T01:48:09.870Z,3.9
2022-12-19T01:49:17.638Z,3.9
2022-12-19T01:50:24.172Z,3.9
2022-12-19T01:51:31.311Z,3.9
2022-12-19T01:52:38.331Z,3.9
2022-12-19T01:53:49.463Z,3.9
2022-12-19T01:54:52.049Z,4
2022-12-19T01:55:59.070Z,4.1
2022-12-19T01:57:06.776Z,4.1
2022-12-19T01:58:12.764Z,4.1
2022-12-19T01:59:19.870Z,4.1
2022-12-19T02:00:26.997Z,4.1
2022-12-19T02:01:34.520Z,4.1
2022-12-19T02:02:41.333Z,4
2022-12-19T02:03:47.781Z,4.1
2022-12-19T02:04:54.903Z,4.1
2022-12-19T02:06:01.987Z,4.1
2022-12-19T02:07:15.968Z,4.1
2022-12-19T02:08:16.237Z,4.2
2022-12-19T02:09:23.303Z,4.2
2022-12-19T02:10:29.901Z,4.2
2022-12-19T02:11:37.077Z,4.2
2022-12-19T02:12:44.100Z,4.2
2022-12-19T02:13:51.271Z,4.2
2022-12-19T02:15:02.963Z,4.3
2022-12-19T02:16:05.041Z,4.3
2022-12-19T02:17:12.000Z,4.3
2022-12-19T02:18:19.083Z,4.3
2022-12-19T02:19:26.257Z,4.3
2022-12-19T02:20:32.810Z,4.3
2022-12-19T02:21:39.974Z,4.3
2022-12-19T02:22:47.016Z,4.4
2022-12-19T02:23:54.135Z,4.4
2022-12-19T02:25:01.265Z,4.4
2022-12-19T02:26:07.773Z,4.5
2022-12-19T02:27:15.020Z,4.5
2022-12-19T02:28:22.062Z,4.5
2022-12-19T02:29:29.139Z,4.5
2022-12-19T02:30:36.267Z,4.5
2022-12-19T02:31:42.879Z,4.5
2022-12-19T02:32:49.888Z,4.5
2022-12-19T02:33:57.029Z,4.5
2022-12-19T02:35:04.140Z,4.6
2022-12-19T02:36:11.264Z,4.6
2022-12-19T02:37:17.882Z,4.6
2022-12-19T02:38:24.989Z,4.7
2022-12-19T02:39:33.698Z,4.7
2022-12-19T02:40:39.120Z,4.7
2022-12-19T02:42:52.876Z,4.7
2022-12-19T02:43:59.909Z,4.7
2022-12-19T02:45:06.527Z,4.7
2022-12-19T02:46:14.290Z,4.7
2022-12-19T02:47:21.341Z,4.7
2022-12-19T02:48:27.838Z,4.7
2022-12-19T02:49:34.971Z,4.6
2022-12-19T02:50:42.114Z,4.6
2022-12-19T02:51:49.239Z,4.6
2022-12-19T02:52:56.240Z,4.6
2022-12-19T02:54:02.855Z,4.7
2022-12-19T02:55:09.933Z,4.7
2022-12-19T02:56:17.102Z,4.7
2022-12-19T02:57:24.247Z,4.7
2022-12-19T02:58:31.373Z,4.7
2022-12-19T03:00:45.514Z,4.7
2022-12-19T03:01:52.281Z,4.8
2022-12-19T03:03:00.972Z,4.8
2022-12-19T03:04:06.392Z,4.8
2022-12-19T03:05:12.943Z,4.8
2022-12-19T03:06:19.961Z,4.8
2022-12-19T03:07:27.134Z,4.8
2022-12-19T03:08:34.253Z,4.8
2022-12-19T03:09:41.312Z,4.7
2022-12-19T03:10:47.861Z,4.7
2022-12-19T03:11:55.099Z,4.7
2022-12-19T03:13:02.131Z,4.7
2022-12-19T03:14:09.235Z,4.7
2022-12-19T03:15:16.353Z,4.7
2022-12-19T03:16:23.014Z,4.7
2022-12-19T03:17:30.111Z,4.7
2022-12-19T03:18:37.101Z,4.7
2022-12-19T03:19:44.220Z,4.7
2022-12-19T03:20:51.395Z,4.7
2022-12-19T03:21:57.957Z,4.7
2022-12-19T03:23:05.065Z,4.7
2022-12-19T03:24:12.126Z,4.7
2022-12-19T03:25:19.267Z,4.7
2022-12-19T03:26:25.872Z,4.7
2022-12-19T03:27:33.018Z,4.8
2022-12-19T03:28:40.039Z,4.8
2022-12-19T03:29:47.162Z,4.9
2022-12-19T03:30:54.365Z,4.9
2022-12-19T03:32:00.840Z,4.9
2022-12-19T03:33:07.894Z,4.9
2022-12-19T03:34:15.072Z,4.9
2022-12-19T03:35:22.191Z,4.9
2022-12-19T03:36:29.288Z,4.8
2022-12-19T03:37:35.875Z,4.8
2022-12-19T03:38:42.939Z,4.8
2022-12-19T03:39:50.045Z,4.8
2022-12-19T03:40:57.121Z,4.7
2022-12-19T03:42:04.301Z,4.7
2022-12-19T03:43:11.643Z,4.7
2022-12-19T03:44:17.914Z,4.7
2022-12-19T03:46:32.222Z,4.6
2022-12-19T03:47:39.313Z,4.6
2022-12-19T03:48:45.843Z,4.6
2022-12-19T03:49:52.992Z,4.6
2022-12-19T03:51:00.120Z,4.5
2022-12-19T03:52:09.873Z,4.5
2022-12-19T03:53:14.284Z,4.5
2022-12-19T03:54:20.893Z,4.5
2022-12-19T03:55:28.032Z,4.5
2022-12-19T03:56:35.136Z,4.5
2022-12-19T03:57:42.205Z,4.5
2022-12-19T03:58:49.250Z,4.6
2022-12-19T03:59:55.901Z,4.6
2022-12-19T04:01:03.079Z,4.7
2022-12-19T04:02:10.338Z,4.6
2022-12-19T04:03:17.213Z,4.7
2022-12-19T04:04:24.878Z,4.7
2022-12-19T04:05:30.982Z,4.7
2022-12-19T04:06:38.064Z,4.7
2022-12-19T04:07:44.571Z,4.7
2022-12-19T04:08:52.162Z,4.7
2022-12-19T04:09:59.299Z,4.7
2022-12-19T04:11:05.880Z,4.7
2022-12-19T04:12:13.084Z,4.7
2022-12-19T04:13:20.121Z,4.7
2022-12-19T04:14:27.211Z,4.7
2022-12-19T04:15:34.329Z,4.7
2022-12-19T04:16:40.960Z,4.8
2022-12-19T04:17:47.960Z,4.9
2022-12-19T04:18:55.176Z,4.9
2022-12-19T04:20:02.182Z,4.9
2022-12-19T04:21:09.282Z,5
2022-12-19T04:22:15.914Z,5.1
2022-12-19T04:23:23.077Z,5.2
2022-12-19T04:24:30.073Z,5.2
2022-12-19T04:25:37.244Z,5.2
2022-12-19T04:26:44.401Z,5.2
2022-12-19T04:28:58.061Z,5.3
2022-12-19T04:30:05.154Z,5.3
2022-12-19T04:31:12.290Z,5.3
2022-12-19T04:32:19.369Z,5.3
2022-12-19T04:33:25.935Z,5.2
2022-12-19T04:34:33.083Z,5.2
2022-12-19T04:35:40.132Z,5.2
2022-12-19T04:36:47.199Z,5.2
2022-12-19T04:37:54.380Z,5.2
2022-12-19T04:39:00.884Z,5.2
2022-12-19T04:40:08.033Z,5.2
2022-12-19T04:41:15.173Z,5.2
2022-12-19T04:42:22.305Z,5.1
2022-12-19T04:43:29.343Z,5.1
2022-12-19T04:44:35.975Z,5.2
2022-12-19T04:45:43.036Z,5.2
2022-12-19T04:46:50.222Z,5.2
2022-12-19T04:47:57.213Z,5.2
2022-12-19T04:50:10.941Z,5.2
2022-12-19T04:51:18.072Z,5.2
2022-12-19T04:52:25.214Z,5.3
2022-12-19T04:53:32.218Z,5.3
2022-12-19T04:54:39.362Z,5.3
2022-12-19T04:55:45.986Z,5.3
2022-12-19T04:56:53.117Z,5.3
2022-12-19T04:58:00.170Z,5.2
2022-12-19T04:59:07.261Z,5.2
2022-12-19T05:00:14.413Z,5.2
2022-12-19T05:01:21.071Z,5.2
2022-12-19T05:02:28.353Z,5.2
2022-12-19T05:03:35.348Z,5.1
2022-12-19T05:04:42.273Z,5.1
2022-12-19T05:05:50.951Z,5.1
2022-12-19T05:06:56.052Z,5.2
2022-12-19T05:08:03.602Z,5.2
2022-12-19T05:09:10.133Z,5.2
2022-12-19T05:10:17.272Z,5.2
2022-12-19T05:11:24.414Z,5.1
2022-12-19T05:12:30.990Z,5.1
2022-12-19T05:13:38.036Z,5.1
2022-12-19T05:14:45.181Z,5.1
2022-12-19T05:15:52.385Z,5.1
2022-12-19T05:17:01.517Z,5.1
2022-12-19T05:18:06.056Z,5.2
2022-12-19T05:19:13.106Z,5.2
2022-12-19T05:20:20.190Z,5.2
2022-12-19T05:21:27.323Z,5.2
2022-12-19T05:22:33.908Z,5.2
2022-12-19T05:23:40.981Z,5.3
2022-12-19T05:24:48.100Z,5.4
2022-12-19T05:25:55.180Z,5.5
2022-12-19T05:27:02.419Z,5.6
2022-12-19T05:28:08.875Z,5.8
2022-12-19T05:29:15.989Z,6
2022-12-19T05:31:30.286Z,6.3
2022-12-19T05:32:37.378Z,6.4
2022-12-19T05:33:43.933Z,6.3
2022-12-19T05:34:51.002Z,6.2
2022-12-19T05:35:58.082Z,6.2
2022-12-19T05:37:05.237Z,6.1
2022-12-19T05:38:12.327Z,6.1
2022-12-19T05:39:18.930Z,6
2022-12-19T05:40:26.039Z,5.9
2022-12-19T05:41:33.070Z,5.9
2022-12-19T05:42:40.282Z,5.8
2022-12-19T05:43:47.319Z,5.7
2022-12-19T05:44:53.938Z,5.6
2022-12-19T05:46:01.036Z,5.6
2022-12-19T05:47:08.125Z,5.5
2022-12-19T05:48:15.261Z,5.5
2022-12-19T05:49:22.343Z,5.4
2022-12-19T05:50:28.874Z,5.4
2022-12-19T05:51:36.022Z,5.4
2022-12-19T05:53:50.315Z,5.3
2022-12-19T05:54:57.326Z,5.3
2022-12-19T05:57:11.067Z,5.3
2022-12-19T05:58:18.137Z,5.4
2022-12-19T05:59:25.274Z,5.4
2022-12-19T06:00:32.339Z,5.4
2022-12-19T06:01:38.969Z,5.4
2022-12-19T06:02:46.308Z,5.4
2022-12-19T06:03:53.301Z,5.4
2022-12-19T06:05:00.293Z,5.4
2022-12-19T06:06:07.365Z,5.5
2022-12-19T06:07:17.898Z,5.5
2022-12-19T06:08:21.048Z,5.6
2022-12-19T06:09:28.165Z,5.6
2022-12-19T06:10:35.290Z,5.6
2022-12-19T06:12:48.997Z,5.6
2022-12-19T06:13:56.056Z,5.6
2022-12-19T06:15:03.151Z,5.6
2022-12-19T06:16:10.289Z,5.6
2022-12-19T06:17:17.392Z,5.6
2022-12-19T06:18:23.913Z,5.6
2022-12-19T06:19:31.053Z,5.6
2022-12-19T06:20:38.171Z,5.6
2022-12-19T06:21:48.183Z,5.6
2022-12-19T06:22:52.409Z,5.6
2022-12-19T06:23:58.955Z,5.6
2022-12-19T06:25:06.117Z,5.6
2022-12-19T06:26:18.738Z,5.6
2022-12-19T06:27:20.361Z,5.6
2022-12-19T06:28:26.887Z,5.6
2022-12-19T06:29:33.983Z,5.6
2022-12-19T06:30:41.141Z,5.6
2022-12-19T06:31:48.299Z,5.6
2022-12-19T06:32:55.810Z,5.6
2022-12-19T06:34:02.447Z,5.6
2022-12-19T06:35:08.987Z,5.6
2022-12-19T06:36:16.131Z,5.6
2022-12-19T06:37:23.213Z,5.7
2022-12-19T06:38:30.325Z,5.7
2022-12-19T06:39:36.869Z,5.7
2022-12-19T06:40:44.081Z,5.7
2022-12-19T06:41:51.109Z,5.7
2022-12-19T06:42:58.196Z,5.7
2022-12-19T06:44:05.327Z,5.7
2022-12-19T06:45:11.902Z,5.8
2022-12-19T06:46:19.036Z,5.9
2022-12-19T06:47:26.165Z,5.9
2022-12-19T06:48:33.230Z,5.9
2022-12-19T06:49:40.341Z,5.9
2022-12-19T06:50:46.883Z,5.9
2022-12-19T06:51:54.086Z,5.9
2022-12-19T06:54:08.213Z,5.9
2022-12-19T06:55:15.305Z,5.9
2022-12-19T06:57:29.013Z,6
2022-12-19T06:58:36.144Z,6
2022-12-19T06:59:43.279Z,6
2022-12-19T07:00:50.339Z,6
2022-12-19T07:01:57.139Z,6
2022-12-19T07:03:04.084Z,6
2022-12-19T07:04:11.155Z,6
2022-12-19T07:05:18.220Z,6
2022-12-19T07:06:25.288Z,6.1
2022-12-19T07:07:31.963Z,6.1
2022-12-19T07:08:38.992Z,6.1
2022-12-19T07:09:46.149Z,6.1
2022-12-19T07:10:53.335Z,6.1
2022-12-19T07:12:00.392Z,6.1
2022-12-19T07:13:06.880Z,6.1
2022-12-19T07:14:14.061Z,6.1
2022-12-19T07:15:21.696Z,6.1
2022-12-19T07:16:28.331Z,6.1
2022-12-19T07:17:35.301Z,6.1
2022-12-19T07:18:42.493Z,6.1
2022-12-19T07:19:49.035Z,6.1
2022-12-19T07:20:56.174Z,6.1
2022-12-19T07:22:03.336Z,6.1
2022-12-19T07:23:10.341Z,6.1
2022-12-19T07:25:24.052Z,6.2
2022-12-19T07:26:31.172Z,6.2
2022-12-19T07:27:38.262Z,6.2
2022-12-19T07:28:45.408Z,6.2
2022-12-19T07:29:51.945Z,6.1
2022-12-19T07:30:59.052Z,6.1
2022-12-19T07:32:06.261Z,6.1
2022-12-19T07:33:18.282Z,6.1
2022-12-19T07:35:26.957Z,6.1
2022-12-19T07:36:34.093Z,6.1
2022-12-19T07:37:41.205Z,6.1
2022-12-19T07:38:48.272Z,6.1
2022-12-19T07:39:55.461Z,6.1
2022-12-19T07:41:01.977Z,6.1
2022-12-19T07:42:09.122Z,6.2
2022-12-19T07:43:16.127Z,6.2
2022-12-19T07:44:23.304Z,6.2
2022-12-19T07:45:30.404Z,6.2
2022-12-19T07:46:36.954Z,6.2
2022-12-19T07:47:44.125Z,6.2
2022-12-19T07:48:51.202Z,6.3
2022-12-19T07:49:58.245Z,6.3
2022-12-19T07:51:05.406Z,6.3
2022-12-19T07:52:12.061Z,6.3
2022-12-19T07:53:19.081Z,6.3
2022-12-19T07:54:26.204Z,6.3
2022-12-19T07:55:33.305Z,6.3
2022-12-19T07:56:40.430Z,6.3
2022-12-19T07:57:47.005Z,6.3
2022-12-19T07:58:54.067Z,6.3
2022-12-19T08:01:08.812Z,6.3
2022-12-19T08:02:15.542Z,6.3
2022-12-19T08:03:22.065Z,6.3
2022-12-19T08:04:29.055Z,6.3
2022-12-19T08:05:36.281Z,6.3
2022-12-19T08:06:43.300Z,6.3
2022-12-19T08:07:50.501Z,6.3
2022-12-19T08:08:56.993Z,6.3
2022-12-19T08:10:04.151Z,6.3
2022-12-19T08:11:11.231Z,6.3
2022-12-19T08:12:18.273Z,6.3
2022-12-19T08:13:24.898Z,6.3
2022-12-19T08:14:31.996Z,6.3
2022-12-19T08:17:18.738Z,6.3
2022-12-19T08:17:53.487Z,6.3
2022-12-19T08:19:00.462Z,6.3
2022-12-19T08:20:06.965Z,6.3
2022-12-19T08:21:14.122Z,6.3
2022-12-19T08:22:21.266Z,6.3
2022-12-19T08:23:28.331Z,6.3
2022-12-19T08:24:34.951Z,6.3
2022-12-19T08:25:42.010Z,6.3
2022-12-19T08:26:49.143Z,6.3
2022-12-19T08:27:56.303Z,6.3
2022-12-19T08:29:03.351Z,6.3
2022-12-19T08:30:09.878Z,6.3
2022-12-19T08:31:17.107Z,6.3
2022-12-19T08:32:24.163Z,6.3
2022-12-19T08:33:31.215Z,6.3
2022-12-19T08:34:38.347Z,6.3
2022-12-19T08:35:44.994Z,6.3
2022-12-19T08:36:52.024Z,6.4
2022-12-19T08:37:59.202Z,6.4
2022-12-19T08:39:06.296Z,6.4
2022-12-19T08:40:13.375Z,6.4
2022-12-19T08:41:19.895Z,6.4
2022-12-19T08:42:27.140Z,6.4
2022-12-19T08:43:34.169Z,6.4
2022-12-19T08:44:41.238Z,6.4
2022-12-19T08:45:51.094Z,6.5
2022-12-19T08:46:54.971Z,6.5
2022-12-19T08:48:02.132Z,6.4
2022-12-19T08:49:09.155Z,6.5
2022-12-19T08:50:16.285Z,6.4
2022-12-19T08:51:23.404Z,6.5
2022-12-19T08:53:37.122Z,6.4
2022-12-19T08:54:44.196Z,6.4
2022-12-19T08:55:51.330Z,6.4
2022-12-19T08:56:57.865Z,6.4
2022-12-19T08:58:05.030Z,6.4
2022-12-19T08:59:12.095Z,6.4
2022-12-19T09:00:19.169Z,6.4
2022-12-19T09:01:26.411Z,6.5
2022-12-19T09:02:33.581Z,6.4
2022-12-19T09:05:58.787Z,6.5
2022-12-19T09:06:05.284Z,6.4
2022-12-19T09:07:01.264Z,6.4
2022-12-19T09:08:08.046Z,6.4
2022-12-19T09:09:15.001Z,6.4
2022-12-19T09:10:22.119Z,6.4
2022-12-19T09:11:29.196Z,6.4
2022-12-19T09:12:36.319Z,6.4
2022-12-19T09:13:42.870Z,6.4
2022-12-19T09:14:49.967Z,6.5
2022-12-19T09:15:57.073Z,6.5
2022-12-19T09:17:04.828Z,6.5
2022-12-19T09:18:11.329Z,6.5
2022-12-19T09:19:18.402Z,6.5
2022-12-19T09:20:25.021Z,6.5
2022-12-19T09:21:32.078Z,6.5
2022-12-19T09:22:39.165Z,6.5
2022-12-19T09:23:46.361Z,6.5
2022-12-19T09:24:52.903Z,6.6
2022-12-19T09:25:59.983Z,6.5
2022-12-19T09:27:07.155Z,6.6
2022-12-19T09:28:27.923Z,6.6
2022-12-19T09:29:22.327Z,6.6
2022-12-19T09:30:27.913Z,6.6
2022-12-19T09:31:35.040Z,6.6
2022-12-19T09:32:42.119Z,6.6
2022-12-19T09:33:49.211Z,6.6
2022-12-19T09:34:56.359Z,6.6
2022-12-19T09:36:02.943Z,6.7
2022-12-19T09:37:15.412Z,6.6
2022-12-19T09:38:16.612Z,6.6
2022-12-19T09:39:24.261Z,6.6
2022-12-19T09:40:31.357Z,6.6
2022-12-19T09:41:38.404Z,6.6
2022-12-19T09:42:45.044Z,6.6
2022-12-19T09:43:52.114Z,6.6
2022-12-19T09:44:59.187Z,6.6
2022-12-19T09:46:06.408Z,6.7
2022-12-19T09:47:13.000Z,6.6
2022-12-19T09:48:24.147Z,6.6
2022-12-19T09:49:27.137Z,6.6
2022-12-19T09:50:34.282Z,6.6
2022-12-19T09:51:41.332Z,6.6
2022-12-19T09:52:47.986Z,6.6
2022-12-19T09:53:55.057Z,6.5
2022-12-19T09:55:02.141Z,6.5
2022-12-19T09:56:09.248Z,6.5
2022-12-19T09:57:16.372Z,6.5
2022-12-19T09:58:23.051Z,6.5
2022-12-19T09:59:39.952Z,6.5
2022-12-19T10:00:37.142Z,6.4
2022-12-19T10:01:44.488Z,6.5
2022-12-19T10:02:51.676Z,6.4
2022-12-19T10:03:58.045Z,6.5
2022-12-19T10:05:15.091Z,6.5
2022-12-19T10:07:11.068Z,6.5
2022-12-19T10:08:26.357Z,6.6
2022-12-19T10:10:45.888Z,6.6
2022-12-19T10:12:35.502Z,6.6
2022-12-19T10:12:38.879Z,6.7
2022-12-19T10:12:58.533Z,6.6
2022-12-19T10:14:01.415Z,6.6
2022-12-19T10:15:08.018Z,6.7
2022-12-19T10:16:15.151Z,6.7
2022-12-19T10:17:24.816Z,6.8
2022-12-19T10:18:29.534Z,6.8
2022-12-19T10:22:17.104Z,6.7
2022-12-19T10:22:57.188Z,6.7
2022-12-19T10:24:04.326Z,6.7
2022-12-19T10:25:11.409Z,6.7
2022-12-19T10:26:18.465Z,6.6
2022-12-19T10:27:25.080Z,6.6
2022-12-19T10:28:32.236Z,6.6
2022-12-19T10:29:39.344Z,6.6
2022-12-19T10:30:46.556Z,6.6
2022-12-19T10:31:53.908Z,6.6
2022-12-19T10:33:00.044Z,6.6
2022-12-19T10:34:07.202Z,6.7
2022-12-19T10:35:14.344Z,6.7
2022-12-19T10:36:20.939Z,6.8
2022-12-19T10:37:37.712Z,6.8
2022-12-19T10:38:35.157Z,6.8
2022-12-19T10:39:42.209Z,6.8
2022-12-19T10:40:49.268Z,6.8
2022-12-19T10:41:55.947Z,6.8
2022-12-19T10:43:09.408Z,6.8
2022-12-19T10:44:10.159Z,6.8
2022-12-19T10:45:17.261Z,6.8
2022-12-19T10:46:24.367Z,6.8
2022-12-19T10:47:30.986Z,6.8
2022-12-19T10:48:38.000Z,6.8
2022-12-19T10:49:45.265Z,6.8
2022-12-19T10:50:52.253Z,6.8
2022-12-19T10:51:59.366Z,6.8
2022-12-19T10:53:06.508Z,6.9
2022-12-19T10:54:13.175Z,6.9
2022-12-19T10:55:20.141Z,6.9
2022-12-19T10:56:33.202Z,6.9
2022-12-19T10:57:34.947Z,6.9
2022-12-19T10:58:40.951Z,6.9
2022-12-19T10:59:48.025Z,7
2022-12-19T11:02:04.963Z,7
2022-12-19T11:03:09.638Z,7
2022-12-19T11:04:15.908Z,7
2022-12-19T11:05:23.130Z,7
2022-12-19T11:06:30.170Z,7
2022-12-19T11:07:37.346Z,7
2022-12-19T11:08:44.374Z,7
2022-12-19T11:11:04.966Z,7
2022-12-19T11:12:07.389Z,7
2022-12-19T11:16:38.252Z,7
2022-12-19T11:18:41.521Z,7
2022-12-19T11:18:42.658Z,7
2022-12-19T11:22:06.060Z,7.1
2022-12-19T11:22:35.804Z,7.1
2022-12-19T11:27:10.930Z,7.1
2022-12-19T11:29:18.575Z,7.1
2022-12-19T11:29:30.854Z,7.1
2022-12-19T11:29:32.144Z,7.3
2022-12-19T11:29:36.449Z,7.2
2022-12-19T11:29:40.716Z,7.3
2022-12-19T11:29:42.536Z,7.3
2022-12-19T11:30:06.173Z,7.4
2022-12-19T11:30:08.657Z,7.3
2022-12-19T11:30:08.657Z,7.3
2022-12-19T11:30:35.212Z,7.4
2022-12-19T11:32:14.217Z,7.5
2022-12-19T11:32:38.757Z,7.5
2022-12-19T11:33:18.300Z,7.5
2022-12-19T11:34:25.209Z,7.6
2022-12-19T11:35:36.616Z,7.6
2022-12-19T11:36:39.364Z,7.6
2022-12-19T11:37:46.056Z,7.6
2022-12-19T11:38:53.070Z,7.6
2022-12-19T11:40:00.330Z,7.6
2022-12-19T11:41:07.279Z,7.5
2022-12-19T11:43:43.740Z,7.5
2022-12-19T11:44:28.088Z,7.5
2022-12-19T11:45:35.224Z,7.5
2022-12-19T11:46:42.353Z,7.5
2022-12-19T11:47:49.419Z,7.5
2022-12-19T11:50:03.077Z,7.6
2022-12-19T11:51:10.204Z,7.6
2022-12-19T11:53:24.406Z,7.7
2022-12-19T11:54:30.979Z,7.7
2022-12-19T11:55:38.129Z,7.7
2022-12-19T11:56:45.214Z,7.7
2022-12-19T11:57:52.369Z,7.7
2022-12-19T11:58:59.424Z,7.7
2022-12-19T12:00:06.084Z,7.7
2022-12-19T12:01:13.124Z,7.7
2022-12-19T12:02:20.272Z,7.7
2022-12-19T12:03:27.361Z,7.7
2022-12-19T12:04:34.501Z,7.7
2022-12-19T12:05:41.008Z,7.7
2022-12-19T12:06:48.122Z,7.7
2022-12-19T12:08:48.569Z,7.7
2022-12-19T12:10:42.680Z,7.8
2022-12-19T12:13:32.040Z,7.8
2022-12-19T12:14:48.951Z,7.8
2022-12-19T12:16:58.668Z,7.8
2022-12-19T12:18:30.744Z,7.8
2022-12-19T12:23:39.494Z,7.8
2022-12-19T12:27:35.973Z,7.8
2022-12-19T12:31:01.055Z,7.8
2022-12-19T12:31:01.643Z,7.8
2022-12-19T12:31:04.194Z,7.8
2022-12-19T12:31:04.396Z,7.8
2022-12-19T12:31:10.914Z,7.8
2022-12-19T12:31:22.672Z,7.8
2022-12-19T12:31:44.955Z,7.7
2022-12-19T12:31:47.732Z,7.7
2022-12-19T12:31:52.735Z,7.7
2022-12-19T12:32:02.060Z,7.7
2022-12-19T12:32:05.262Z,7.7
2022-12-19T12:32:05.405Z,7.7
2022-12-19T12:35:46.738Z,7.7
2022-12-19T12:35:56.940Z,7.7
2022-12-19T12:37:03.484Z,7.7
2022-12-19T12:38:21.583Z,7.7
2022-12-19T12:39:14.264Z,7.6
2022-12-19T12:40:23.991Z,7.6
2022-12-19T12:41:25.312Z,7.6
2022-12-19T12:42:32.335Z,7.6
2022-12-19T12:43:38.943Z,7.5
2022-12-19T12:44:46.503Z,7.5
2022-12-19T12:45:53.243Z,7.5
2022-12-19T12:47:00.304Z,7.5
2022-12-19T12:48:07.416Z,7.6
2022-12-19T12:49:13.956Z,7.6
2022-12-19T12:50:21.078Z,7.6
2022-12-19T12:51:28.184Z,7.5
2022-12-19T12:52:35.315Z,7.5
2022-12-19T12:53:42.391Z,7.6
2022-12-19T12:54:48.984Z,7.6
2022-12-19T12:55:56.131Z,7.7
2022-12-19T12:57:03.263Z,7.6
2022-12-19T12:58:14.129Z,7.7
2022-12-19T12:59:17.416Z,7.7
2022-12-19T13:00:23.977Z,7.7
2022-12-19T13:01:31.223Z,7.7
2022-12-19T13:02:38.273Z,7.7
2022-12-19T13:03:45.374Z,7.7
2022-12-19T13:05:58.985Z,7.7
2022-12-19T13:07:06.088Z,7.7
2022-12-19T13:08:13.294Z,7.7
2022-12-19T13:09:20.358Z,7.7
2022-12-19T13:10:27.368Z,7.7
2022-12-19T13:11:34.058Z,7.7
2022-12-19T13:12:41.153Z,7.6
2022-12-19T13:13:48.192Z,7.6
2022-12-19T13:14:55.346Z,7.6
2022-12-19T13:16:02.452Z,7.6
2022-12-19T13:18:16.139Z,7.5
2022-12-19T13:19:27.956Z,7.5
2022-12-19T13:20:30.318Z,7.5
2022-12-19T13:21:37.400Z,7.5
2022-12-19T13:22:44.010Z,7.5
2022-12-19T13:23:51.182Z,7.5
2022-12-19T13:24:58.225Z,7.5
2022-12-19T13:26:05.503Z,7.5
2022-12-19T13:27:11.880Z,7.4
2022-12-19T13:28:19.028Z,7.4
2022-12-19T13:29:26.124Z,7.4
2022-12-19T13:30:36.485Z,7.4
2022-12-19T13:31:40.336Z,7.4
2022-12-19T13:32:46.942Z,7.5
2022-12-19T13:33:55.838Z,7.5
2022-12-19T13:35:23.642Z,7.4
2022-12-19T13:39:47.773Z,7.5
2022-12-19T13:39:54.781Z,7.4
2022-12-19T13:39:55.326Z,7.5
2022-12-19T13:40:36.283Z,7.4
2022-12-19T13:41:43.305Z,7.5
2022-12-19T13:42:50.374Z,7.5
2022-12-19T13:43:56.897Z,7.5
2022-12-19T13:45:04.084Z,7.5
2022-12-19T13:46:11.194Z,7.5
2022-12-19T13:47:23.641Z,7.5
2022-12-19T13:48:25.451Z,7.5
2022-12-19T13:49:34.347Z,7.5
2022-12-19T13:50:39.050Z,7.5
2022-12-19T13:51:46.164Z,7.5
2022-12-19T13:52:53.263Z,7.4
2022-12-19T13:54:00.945Z,7.5
2022-12-19T13:55:06.947Z,7.5
2022-12-19T13:56:14.047Z,7.5
2022-12-19T13:57:21.197Z,7.4
2022-12-19T13:58:29.385Z,7.4
2022-12-19T13:59:35.400Z,7.4
2022-12-19T14:00:42.489Z,7.4
2022-12-19T14:01:49.224Z,7.4
2022-12-19T14:02:56.442Z,7.3
2022-12-19T14:04:08.455Z,7.3
2022-12-19T14:05:10.392Z,7.3
2022-12-19T14:06:19.223Z,7.3
2022-12-19T14:07:34.786Z,7.3
2022-12-19T14:08:31.212Z,7.2
2022-12-19T14:11:27.279Z,7.2
2022-12-19T14:11:32.699Z,7.2
2022-12-19T14:13:39.560Z,7.2
2022-12-19T14:13:45.467Z,7.2
2022-12-19T14:14:12.752Z,7.2
2022-12-19T14:15:13.977Z,7.2
2022-12-19T14:16:20.447Z,7.2
2022-12-19T14:17:26.991Z,7.2
2022-12-19T14:18:44.685Z,7.2
2022-12-19T14:19:41.192Z,7.2
2022-12-19T14:22:03.625Z,7.2
2022-12-19T14:22:10.257Z,7.2
2022-12-19T14:23:01.980Z,7.2
2022-12-19T14:24:09.080Z,7.2
2022-12-19T14:28:17.124Z,7.2
2022-12-19T14:28:18.040Z,7.1
2022-12-19T14:28:20.806Z,7.1
2022-12-19T14:28:23.157Z,7.2
2022-12-19T14:28:37.145Z,7.1
2022-12-19T14:30:28.324Z,7.1
2022-12-19T14:30:51.248Z,7.1
2022-12-19T14:33:43.353Z,7.1
2022-12-19T14:33:44.991Z,7.1
2022-12-19T14:34:46.742Z,7.1
2022-12-19T14:36:09.964Z,7.1
2022-12-19T14:36:26.913Z,7.1
2022-12-19T14:38:12.688Z,7.1
2022-12-19T14:39:25.135Z,7.1
2022-12-19T14:39:47.015Z,7.1
2022-12-19T14:42:02.296Z,7.1
2022-12-19T14:43:58.855Z,7.1
2022-12-19T14:52:35.127Z,7.1
2022-12-19T14:53:52.266Z,7.1
2022-12-19T14:53:52.716Z,7.1
2022-12-19T14:54:09.039Z,7.1
2022-12-19T14:54:15.424Z,7.1
2022-12-19T14:54:18.342Z,7.2
2022-12-19T14:54:23.273Z,7.2
2022-12-19T14:54:29.542Z,7.2
2022-12-19T14:55:09.405Z,7.3
2022-12-19T14:55:59.108Z,7.3
2022-12-19T14:56:57.562Z,7.3
2022-12-19T14:58:52.135Z,7.3
2022-12-19T14:58:53.614Z,7.3
2022-12-19T14:59:53.354Z,7.3
2022-12-19T15:01:09.714Z,7.3
2022-12-19T15:02:07.334Z,7.3
2022-12-19T15:03:16.252Z,7.3
2022-12-19T15:04:52.414Z,7.3
2022-12-19T15:05:28.467Z,7.3
2022-12-19T15:07:07.281Z,7.3
2022-12-19T15:07:42.142Z,7.3
2022-12-19T15:10:58.225Z,7.2
2022-12-19T15:11:04.818Z,7.2
2022-12-19T15:14:50.664Z,7.2
2022-12-19T15:14:50.793Z,7.2
2022-12-19T15:14:51.744Z,7.2
2022-12-19T15:15:31.417Z,7.2
2022-12-19T15:16:38.505Z,7.2
2022-12-19T15:17:45.049Z,7.2
2022-12-19T15:18:52.061Z,7.3
2022-12-19T15:19:59.130Z,7.2
2022-12-19T15:21:06.299Z,7.2
2022-12-19T15:22:13.971Z,7.3
2022-12-19T15:23:22.395Z,7.3
2022-12-19T15:24:27.073Z,7.3
2022-12-19T15:26:02.711Z,7.3
2022-12-19T15:26:40.776Z,7.3
2022-12-19T15:27:48.465Z,7.3
2022-12-19T15:28:54.954Z,7.3
2022-12-19T15:30:02.190Z,7.3
2022-12-19T15:31:09.245Z,7.3
2022-12-19T15:32:16.304Z,7.3
2022-12-19T15:33:23.512Z,7.3
2022-12-19T15:34:35.524Z,7.3
2022-12-19T15:35:37.038Z,7.3
2022-12-19T15:36:44.275Z,7.3
2022-12-19T15:37:51.386Z,7.3
2022-12-19T15:38:58.448Z,7.3
2022-12-19T15:40:05.045Z,7.3
2022-12-19T15:41:14.508Z,7.3
2022-12-19T15:42:19.151Z,7.2
2022-12-19T15:44:01.815Z,7.2
2022-12-19T15:45:40.015Z,7.3
2022-12-19T15:46:49.014Z,7.3
2022-12-19T15:47:54.317Z,7.3
2022-12-19T15:49:01.310Z,7.3
2022-12-19T15:50:08.373Z,7.3
2022-12-19T15:51:15.025Z,7.3
2022-12-19T15:52:22.151Z,7.3
2022-12-19T15:53:40.264Z,7.3
2022-12-19T15:54:50.037Z,7.3
2022-12-19T15:55:42.887Z,7.3
2022-12-19T15:56:50.009Z,7.3
2022-12-19T15:57:57.179Z,7.3
2022-12-19T15:59:04.288Z,7.3
2022-12-19T16:00:11.326Z,7.3
2022-12-19T16:01:18.128Z,7.3
2022-12-19T16:02:25.199Z,7.3
2022-12-19T16:03:32.423Z,7.3
2022-12-19T16:04:39.401Z,7.3
2022-12-19T16:05:46.365Z,7.3
2022-12-19T16:06:52.958Z,7.3
2022-12-19T16:08:00.114Z,7.3